Time;durP1;ratioP1;P1;durP2;ratioP2;P2;SDS_P1;SDS_P2;PMS_P1;PMS_P2;Temp;Humidity;BMP_temperature;BMP_pressure;BME280_temperature;BME280_humidity;BME280_pressure;Samples;Min_cycle;Max_cycle;Signal;HPM_P1;HPM_P2
2021/04/24 00:00:14;;;;;;;2.50;1.50;;;;;;;5.78;54.76;100390.19;1760144;80;21404;-66
2021/04/24 00:02:42;;;;;;;4.03;1.42;;;;;;;5.76;54.87;100379.14;1756570;80;21868;-65
2021/04/24 00:05:27;;;;;;;2.70;1.32;;;;;;;5.73;55.07;100378.96;1760139;81;21157;-65
2021/04/24 00:07:58;;;;;;;3.17;1.50;;;;;;;5.73;55.15;100387.12;1759574;80;21153;-66
2021/04/24 00:10:26;;;;;;;4.22;1.30;;;;;;;5.71;55.20;100386.44;1760138;81;21385;-66
2021/04/24 00:12:53;;;;;;;3.37;1.45;;;;;;;5.67;55.46;100385.06;1760061;80;21153;-66
2021/04/24 00:15:21;;;;;;;2.45;1.45;;;;;;;5.60;55.64;100386.24;1760157;81;21158;-66
2021/04/24 00:17:48;;;;;;;4.03;1.40;;;;;;;5.57;55.90;100393.88;1760130;81;21396;-66
2021/04/24 00:20:19;;;;;;;3.47;1.25;;;;;;;5.52;56.09;100387.58;1781071;79;21146;-66
2021/04/24 00:22:47;;;;;;;3.98;1.20;;;;;;;5.48;56.27;100382.64;1746615;82;21380;-67
2021/04/24 00:25:15;;;;;;;3.08;1.20;;;;;;;5.48;56.45;100393.52;1749938;82;21882;-66
2021/04/24 00:27:43;;;;;;;2.83;1.37;;;;;;;5.47;56.63;100394.53;1746423;82;21284;-67
2021/04/24 00:30:11;;;;;;;4.47;1.42;;;;;;;5.44;56.91;100397.57;1749954;82;21154;-65
2021/04/24 00:32:39;;;;;;;2.72;1.20;;;;;;;5.41;57.22;100395.53;1746719;81;21197;-66
2021/04/24 00:35:08;;;;;;;2.62;1.35;;;;;;;5.39;57.42;100393.99;1750034;82;21142;-66
2021/04/24 00:37:35;;;;;;;2.98;1.45;;;;;;;5.32;57.64;100385.64;1746696;82;21496;-66
2021/04/24 00:40:05;;;;;;;2.22;1.40;;;;;;;5.31;57.90;100400.25;1744185;82;21417;-66
2021/04/24 00:42:33;;;;;;;3.08;1.47;;;;;;;5.29;58.24;100396.84;1724538;83;21319;-65
2021/04/24 00:45:00;;;;;;;2.20;1.42;;;;;;;5.28;58.38;100401.08;1735739;82;21128;-65
2021/04/24 00:47:28;;;;;;;2.95;1.40;;;;;;;5.24;58.63;100396.98;1724651;82;21152;-67
2021/04/24 00:49:55;;;;;;;5.22;1.60;;;;;;;5.23;58.87;100396.14;1735769;82;21437;-67
2021/04/24 00:52:23;;;;;;;2.72;1.42;;;;;;;5.20;59.08;100393.75;1724460;83;21321;-65
2021/04/24 00:54:50;;;;;;;3.55;1.40;;;;;;;5.19;59.42;100406.10;1735776;82;21439;-65
2021/04/24 00:57:17;;;;;;;1.77;1.20;;;;;;;5.13;59.48;100399.97;1724532;82;21347;-65
2021/04/24 00:59:44;;;;;;;2.85;1.80;;;;;;;5.12;59.66;100396.91;1735773;82;21162;-66
2021/04/24 01:02:12;;;;;;;3.08;1.60;;;;;;;5.13;59.74;100395.89;1722806;83;21429;-66
2021/04/24 01:04:39;;;;;;;3.20;1.40;;;;;;;5.07;59.93;100386.53;1735955;82;21468;-66
2021/04/24 01:07:06;;;;;;;4.78;1.37;;;;;;;5.01;60.20;100385.31;1724618;83;21414;-66
2021/04/24 01:09:34;;;;;;;2.62;1.47;;;;;;;5.03;60.38;100382.44;1735719;82;21278;-66
2021/04/24 01:12:02;;;;;;;2.17;1.30;;;;;;;5.04;60.57;100385.50;1724563;81;21157;-66
2021/04/24 01:14:30;;;;;;;3.30;1.57;;;;;;;4.98;60.74;100392.94;1735719;82;21354;-67
2021/04/24 01:16:57;;;;;;;3.02;1.40;;;;;;;4.93;60.86;100387.14;1724519;83;21520;-66
2021/04/24 01:19:26;;;;;;;2.95;1.32;;;;;;;4.91;61.05;100386.45;1735787;82;21281;-66
2021/04/24 01:22:09;;;;;;;3.40;1.40;;;;;;;4.92;61.17;100389.51;1724607;83;21399;-66
2021/04/24 01:24:37;;;;;;;3.80;1.60;;;;;;;4.94;61.12;100386.13;1736034;82;21407;-65
2021/04/24 01:27:06;;;;;;;3.22;1.50;;;;;;;4.96;61.19;100384.10;1724547;83;21401;-65
2021/04/24 01:29:34;;;;;;;3.58;1.40;;;;;;;4.95;61.26;100383.75;1735806;82;21880;-65
2021/04/24 01:32:04;;;;;;;2.00;1.17;;;;;;;4.97;61.11;100377.16;1724542;83;21240;-66
2021/04/24 01:34:32;;;;;;;2.77;1.40;;;;;;;4.94;61.06;100384.27;1735717;82;21170;-66
2021/04/24 01:37:00;;;;;;;2.00;1.30;;;;;;;4.89;61.03;100378.97;1724476;83;21428;-66
2021/04/24 01:39:28;;;;;;;3.05;1.35;;;;;;;4.87;61.11;100385.92;1735819;82;21437;-66
2021/04/24 01:41:56;;;;;;;2.40;1.42;;;;;;;4.86;61.09;100388.29;1724471;83;21173;-66
2021/04/24 01:44:24;;;;;;;3.27;1.50;;;;;;;4.87;61.18;100383.72;1735738;82;21388;-66
2021/04/24 01:46:51;;;;;;;4.05;1.50;;;;;;;4.83;61.22;100389.97;1724107;81;21464;-66
2021/04/24 01:49:19;;;;;;;2.22;1.30;;;;;;;4.83;61.36;100395.91;1735836;82;21360;-66
2021/04/24 01:51:46;;;;;;;2.85;1.40;;;;;;;4.82;61.47;100392.34;1724533;83;21168;-66
2021/04/24 01:54:14;;;;;;;1.85;1.22;;;;;;;4.79;61.47;100392.66;1735685;82;21425;-66
2021/04/24 01:56:58;;;;;;;3.60;1.70;;;;;;;4.76;61.68;100390.27;1724514;83;21336;-67
2021/04/24 01:59:28;;;;;;;2.75;1.35;;;;;;;4.76;61.79;100395.70;1735431;82;21195;-66
2021/04/24 02:01:57;;;;;;;3.50;1.35;;;;;;;4.77;61.86;100387.91;1724429;83;21348;-66
2021/04/24 02:04:26;;;;;;;3.25;1.47;;;;;;;4.77;61.97;100384.69;1735662;82;21418;-67
2021/04/24 02:06:54;;;;;;;2.15;1.42;;;;;;;4.77;62.16;100390.11;1724370;83;21403;-66
2021/04/24 02:09:22;;;;;;;4.58;1.47;;;;;;;4.71;62.29;100388.03;1735706;82;21487;-66
2021/04/24 02:12:10;;;;;;;2.17;1.40;;;;;;;4.68;62.53;100392.43;1724355;83;21130;-65
2021/04/24 02:14:41;;;;;;;;;;;;;;;4.65;62.82;100387.33;1738455;82;21183;-66
2021/04/24 02:17:11;;;;;;;2.70;1.30;;;;;;;4.65;63.04;100392.75;1735733;82;20282;-66
2021/04/24 02:19:43;;;;;;;4.92;1.70;;;;;;;4.62;63.33;100388.15;1724445;83;21459;-66
2021/04/24 02:22:11;;;;;;;3.70;1.62;;;;;;;4.54;63.55;100394.84;1735432;82;21138;-66
2021/04/24 02:24:52;;;;;;;6.37;1.80;;;;;;;4.47;63.95;100400.05;1724391;82;21929;-65
2021/04/24 02:27:20;;;;;;;3.90;1.70;;;;;;;4.43;64.24;100402.73;1707948;82;21442;-67
2021/04/24 02:29:48;;;;;;;6.53;1.70;;;;;;;4.36;64.49;100396.23;1724504;83;21405;-65
2021/04/24 02:32:16;;;;;;;4.58;1.90;;;;;;;4.39;64.70;100394.06;1724452;82;21142;-66
2021/04/24 02:34:45;;;;;;;4.53;1.80;;;;;;;4.39;64.79;100383.22;1724410;83;21208;-65
2021/04/24 02:37:14;;;;;;;3.05;1.77;;;;;;;4.41;64.90;100393.91;1705781;84;21206;-66
2021/04/24 02:39:44;;;;;;;3.35;1.52;;;;;;;4.42;64.97;100390.19;1721595;83;21319;-66
2021/04/24 02:42:15;;;;;;;3.60;1.60;;;;;;;4.45;65.06;100395.30;1713751;82;21152;-65
2021/04/24 02:44:43;;;;;;;5.42;1.60;;;;;;;4.49;65.04;100401.25;1712871;82;21347;-66
2021/04/24 02:47:11;;;;;;;3.55;1.65;;;;;;;4.52;64.98;100400.94;1713693;83;21140;-66
2021/04/24 02:49:38;;;;;;;3.85;2.27;;;;;;;4.51;64.97;100385.66;1760441;79;21173;-66
2021/04/24 02:52:06;;;;;;;4.17;1.70;;;;;;;4.52;65.01;100399.58;1760152;80;21130;-66
2021/04/24 02:54:34;;;;;;;5.72;1.90;;;;;;;4.54;65.05;100405.19;1760044;80;21224;-66
2021/04/24 02:57:02;;;;;;;3.00;1.47;;;;;;;4.51;65.08;100400.08;1760151;81;21186;-65
2021/04/24 02:59:29;;;;;;;4.85;1.65;;;;;;;4.50;65.19;100407.88;1760191;81;21118;-65
2021/04/24 03:01:57;;;;;;;2.70;2.00;;;;;;;4.50;65.29;100408.38;1760103;81;21178;-66
2021/04/24 03:04:24;;;;;;;3.77;1.80;;;;;;;4.52;65.35;100414.00;1760118;80;21122;-66
2021/04/24 03:06:52;;;;;;;3.55;1.47;;;;;;;4.54;65.30;100401.12;1760060;81;21158;-66
2021/04/24 03:09:19;;;;;;;3.15;1.70;;;;;;;4.54;65.17;100399.77;1760127;81;21106;-65
2021/04/24 03:11:48;;;;;;;2.47;1.60;;;;;;;4.56;65.26;100409.98;1764773;79;21146;-67
2021/04/24 03:14:15;;;;;;;3.45;1.42;;;;;;;4.59;65.21;100400.17;1760052;81;21154;-65
2021/04/24 03:16:42;;;;;;;5.33;1.57;;;;;;;4.60;65.20;100407.30;1760089;81;21299;-66
2021/04/24 03:19:10;;;;;;;3.27;1.70;;;;;;;4.58;65.16;100407.11;1760184;80;21122;-66
2021/04/24 03:21:38;;;;;;;2.77;1.47;;;;;;;4.61;65.18;100405.44;1760145;81;21157;-66
2021/04/24 03:24:06;;;;;;;3.37;1.45;;;;;;;4.61;65.04;100409.52;1760072;80;21160;-66
2021/04/24 03:26:33;;;;;;;4.53;1.70;;;;;;;4.62;65.03;100416.64;1760414;79;21886;-66
2021/04/24 03:29:01;;;;;;;3.17;1.40;;;;;;;4.62;65.02;100417.48;1759984;80;21925;-66
2021/04/24 03:31:28;;;;;;;2.10;1.30;;;;;;;4.63;65.05;100408.34;1759969;81;21173;-66
2021/04/24 03:33:55;;;;;;;2.87;1.47;;;;;;;4.68;65.00;100418.72;1759881;80;21145;-65
2021/04/24 03:36:24;;;;;;;5.17;1.60;;;;;;;4.72;65.01;100425.53;1760156;81;21146;-65
2021/04/24 03:38:52;;;;;;;2.92;1.47;;;;;;;4.69;64.94;100421.77;1760055;81;21345;-65
2021/04/24 03:41:19;;;;;;;3.08;1.52;;;;;;;4.68;65.02;100422.28;1765225;81;21399;-65
2021/04/24 03:43:47;;;;;;;4.67;2.05;;;;;;;4.74;65.11;100439.28;1771159;79;21156;-66
2021/04/24 03:46:15;;;;;;;4.83;1.45;;;;;;;4.81;64.88;100433.22;1771376;79;21180;-65
2021/04/24 03:48:42;;;;;;;5.45;1.57;;;;;;;4.83;64.76;100427.13;1771360;81;21403;-66
2021/04/24 03:51:10;;;;;;;4.37;1.50;;;;;;;4.87;64.61;100435.30;1771374;79;21145;-65
2021/04/24 03:53:38;;;;;;;3.12;1.45;;;;;;;4.89;64.34;100435.48;1790834;78;21145;-66
2021/04/24 03:56:06;;;;;;;2.92;1.47;;;;;;;4.89;64.38;100442.77;1706052;81;21192;-66
2021/04/24 03:58:33;;;;;;;3.05;1.72;;;;;;;4.91;64.25;100444.31;1706242;84;21415;-66
2021/04/24 04:01:00;;;;;;;3.80;1.90;;;;;;;4.96;64.04;100451.98;1693974;83;21165;-66
2021/04/24 04:03:28;;;;;;;4.45;1.50;;;;;;;4.96;63.95;100458.26;1706272;83;21174;-66
2021/04/24 04:05:55;;;;;;;3.70;1.67;;;;;;;4.97;64.02;100465.90;1694202;83;21196;-65
2021/04/24 04:08:23;;;;;;;2.30;1.50;;;;;;;4.96;63.79;100460.13;1695479;84;21217;-65
2021/04/24 04:10:52;;;;;;;3.50;1.47;;;;;;;4.96;63.68;100456.91;1707864;82;21177;-66
2021/04/24 04:13:19;;;;;;;2.55;1.50;;;;;;;4.99;63.67;100458.45;1707878;84;21181;-66
2021/04/24 04:15:46;;;;;;;3.90;1.37;;;;;;;5.02;63.48;100467.13;1707794;84;21188;-66
2021/04/24 04:18:17;;;;;;;2.98;1.70;;;;;;;5.03;63.36;100467.47;1707967;83;21531;-66
2021/04/24 04:20:52;;;;;;;4.67;1.75;;;;;;;5.04;63.31;100461.53;1695339;83;21182;-66
2021/04/24 04:23:23;;;;;;;8.58;2.90;;;;;;;5.08;63.13;100464.27;1707998;84;21253;-66
2021/04/24 04:25:51;;;;;;;7.72;1.72;;;;;;;5.10;63.08;100466.32;1707993;82;21264;-66
2021/04/24 04:28:19;;;;;;;2.83;1.65;;;;;;;5.14;63.02;100469.05;1707784;84;21208;-66
2021/04/24 04:30:47;;;;;;;3.70;2.10;;;;;;;5.21;62.89;100473.38;1707903;84;21196;-65
2021/04/24 04:33:14;;;;;;;3.08;1.50;;;;;;;5.23;62.69;100475.42;1707997;82;21415;-66
2021/04/24 04:35:42;;;;;;;3.05;1.40;;;;;;;5.24;62.59;100482.05;1716283;81;21212;-67
2021/04/24 04:38:09;;;;;;;3.20;1.52;;;;;;;5.26;62.43;100480.02;1766687;81;21444;-67
2021/04/24 04:40:37;;;;;;;2.90;1.50;;;;;;;5.28;62.45;100477.14;1754284;81;21236;-66
2021/04/24 04:43:05;;;;;;;4.05;2.10;;;;;;;5.29;62.21;100477.48;1728818;83;21190;-66
2021/04/24 04:45:33;;;;;;;3.40;1.62;;;;;;;5.22;62.37;100475.92;1749421;82;21165;-66
2021/04/24 04:48:00;;;;;;;2.60;1.70;;;;;;;5.23;62.31;100471.34;1732379;82;21389;-67
2021/04/24 04:50:31;;;;;;;4.42;2.00;;;;;;;5.23;62.53;100470.84;1733733;82;21452;-66
2021/04/24 04:52:59;;;;;;;2.95;1.70;;;;;;;5.29;62.28;100468.83;1749323;82;21399;-66
2021/04/24 04:55:26;;;;;;;5.28;1.62;;;;;;;5.34;62.18;100472.42;1728951;83;21440;-65
2021/04/24 04:57:54;;;;;;;3.25;1.85;;;;;;;5.42;61.95;100476.53;1749347;82;21158;-65
2021/04/24 05:00:23;;;;;;;6.45;1.70;;;;;;;5.47;61.89;100473.33;1728897;83;21171;-67
2021/04/24 05:02:50;;;;;;;2.67;1.45;;;;;;;5.55;62.00;100484.23;1787043;80;21268;-66
2021/04/24 05:05:18;;;;;;;3.77;1.52;;;;;;;5.55;61.91;100466.06;1786907;80;21153;-65
2021/04/24 05:07:48;;;;;;;2.47;1.40;;;;;;;5.59;61.97;100462.51;1786984;80;21377;-66
2021/04/24 05:10:18;;;;;;;3.55;1.50;;;;;;;5.56;61.72;100466.91;1786171;80;21146;-65
2021/04/24 05:12:45;;;;;;;5.03;1.40;;;;;;;5.55;62.08;100466.57;1786904;80;21364;-66
2021/04/24 05:15:14;;;;;;;2.35;1.57;;;;;;;5.64;62.01;100473.73;1786971;80;21299;-66
2021/04/24 05:17:41;;;;;;;3.77;1.65;;;;;;;5.75;61.77;100478.88;1786830;80;21181;-66
2021/04/24 05:20:09;;;;;;;3.22;1.80;;;;;;;5.86;61.37;100479.11;1730326;80;21752;-67
2021/04/24 05:22:36;;;;;;;2.90;1.47;;;;;;;5.90;60.80;100476.44;1662047;86;21199;-66
2021/04/24 05:25:05;;;;;;;2.45;1.42;;;;;;;5.94;60.46;100468.28;1669174;84;21445;-66
2021/04/24 05:27:34;;;;;;;2.65;1.50;;;;;;;5.92;60.33;100463.52;1669394;86;21404;-67
2021/04/24 05:30:05;;;;;;;2.72;1.40;;;;;;;5.93;60.42;100463.36;1669277;84;21225;-67
2021/04/24 05:32:32;;;;;;;2.65;1.55;;;;;;;5.99;60.59;100459.12;1669126;84;21438;-66
2021/04/24 05:35:00;;;;;;;3.42;1.85;;;;;;;6.09;60.28;100461.69;1669323;84;21308;-66
2021/04/24 05:37:27;;;;;;;3.58;1.32;;;;;;;6.18;60.10;100462.05;1669221;84;21194;-67
2021/04/24 05:39:56;;;;;;;4.37;1.60;;;;;;;6.24;59.71;100458.66;1669192;84;21249;-67
2021/04/24 05:42:25;;;;;;;3.58;2.00;;;;;;;6.25;59.06;100460.35;1694933;83;21951;-66
2021/04/24 05:44:53;;;;;;;3.67;1.82;;;;;;;6.17;59.03;100461.19;1711161;83;21198;-67
2021/04/24 05:47:21;;;;;;;3.22;1.50;;;;;;;6.12;59.13;100459.99;1711357;83;21581;-67
2021/04/24 05:49:49;;;;;;;2.30;1.30;;;;;;;6.13;59.20;100473.42;1711393;83;21166;-66
2021/04/24 05:52:16;;;;;;;4.50;1.77;;;;;;;6.16;59.13;100468.16;1711209;83;21198;-66
2021/04/24 05:54:44;;;;;;;5.55;1.70;;;;;;;6.19;58.95;100473.27;1711280;83;21212;-66
2021/04/24 05:57:11;;;;;;;3.62;1.70;;;;;;;6.20;58.82;100474.45;1711102;83;21456;-65
2021/04/24 05:59:39;;;;;;;4.03;1.60;;;;;;;6.23;58.58;100478.72;1711356;82;21184;-66
2021/04/24 06:02:07;;;;;;;6.33;1.60;;;;;;;6.21;58.07;100474.80;1736647;81;21320;-65
2021/04/24 06:04:34;;;;;;;7.30;1.50;;;;;;;6.19;58.37;100481.43;1746284;82;21194;-66
2021/04/24 06:07:01;;;;;;;3.58;1.90;;;;;;;6.23;58.43;100470.05;1749818;82;21356;-66
2021/04/24 06:09:29;;;;;;;4.47;1.32;;;;;;;6.19;57.72;100469.19;1746278;82;21181;-66
2021/04/24 06:11:57;;;;;;;3.20;1.60;;;;;;;6.20;57.96;100479.05;1749587;82;21146;-67
2021/04/24 06:14:24;;;;;;;5.05;1.80;;;;;;;6.22;58.18;100477.02;1746222;82;21197;-67
2021/04/24 06:16:52;;;;;;;3.20;1.60;;;;;;;6.24;58.10;100479.05;1750077;82;21154;-67
2021/04/24 06:19:19;;;;;;;2.92;1.50;;;;;;;6.30;58.13;100474.30;1746258;82;21440;-68
2021/04/24 06:21:47;;;;;;;4.33;1.77;;;;;;;6.43;57.84;100471.08;1749791;82;21302;-66
2021/04/24 06:24:14;;;;;;;2.87;1.55;;;;;;;6.56;57.04;100466.86;1746047;82;21230;-67
2021/04/24 06:26:42;;;;;;;3.67;1.50;;;;;;;6.64;56.39;100470.94;1749719;82;21158;-67
2021/04/24 06:29:10;;;;;;;2.95;1.45;;;;;;;6.69;54.97;100474.52;1746492;82;21252;-65
2021/04/24 06:31:39;;;;;;;2.80;1.55;;;;;;;6.64;53.63;100477.75;1743741;82;21170;-66
2021/04/24 06:34:07;;;;;;;2.98;1.22;;;;;;;6.67;52.94;100477.41;1722009;82;21240;-67
2021/04/24 06:36:34;;;;;;;4.28;1.15;;;;;;;6.80;52.14;100478.25;1730475;81;21337;-66
2021/04/24 06:39:05;;;;;;;3.67;1.05;;;;;;;6.89;50.86;100473.14;1730619;82;21201;-66
2021/04/24 06:41:33;;;;;;;4.85;1.10;;;;;;;6.90;49.99;100468.53;1736084;81;21304;-66
2021/04/24 06:44:01;;;;;;;4.47;1.20;;;;;;;6.92;49.81;100466.49;1754625;81;21974;-67
2021/04/24 06:46:29;;;;;;;1.52;0.82;;;;;;;6.97;49.10;100470.91;1754995;81;21276;-67
2021/04/24 06:48:56;;;;;;;3.80;1.20;;;;;;;7.05;48.20;100464.59;1754845;81;21130;-68
2021/04/24 06:51:24;;;;;;;1.30;0.90;;;;;;;7.13;47.90;100457.77;1754224;81;21150;-65
2021/04/24 06:53:52;;;;;;;6.90;1.00;;;;;;;7.26;46.59;100465.77;1724425;81;21205;-66
2021/04/24 06:56:20;;;;;;;1.52;0.70;;;;;;;7.42;45.59;100470.83;1735535;82;21198;-66
2021/04/24 06:58:48;;;;;;;2.85;0.95;;;;;;;7.55;44.10;100499.75;1724291;82;21189;-67
2021/04/24 07:01:16;;;;;;;1.10;0.72;;;;;;;7.61;42.19;100467.69;1735583;82;21155;-66
2021/04/24 07:03:45;;;;;;;7.62;0.95;;;;;;;7.62;42.80;100468.02;1724546;82;21181;-67
2021/04/24 07:06:13;;;;;;;3.70;1.00;;;;;;;7.67;43.62;100464.25;1731490;82;21317;-68
2021/04/24 07:08:40;;;;;;;1.72;0.95;;;;;;;7.64;43.80;100475.00;1736083;82;21214;-67
2021/04/24 07:11:08;;;;;;;3.30;1.00;;;;;;;7.60;43.89;100469.56;1736136;81;21150;-67
2021/04/24 07:13:38;;;;;;;2.52;0.80;;;;;;;7.56;43.56;100473.67;1736073;82;21137;-66
2021/04/24 07:16:06;;;;;;;5.05;0.82;;;;;;;7.52;43.51;100487.83;1754726;81;21198;-67
2021/04/24 07:18:34;;;;;;;4.47;1.40;;;;;;;7.55;42.67;100477.42;1754901;81;21306;-67
2021/04/24 07:21:01;;;;;;;2.92;1.15;;;;;;;7.63;41.91;100475.17;1754861;81;22088;-66
2021/04/24 07:23:33;;;;;;;1.57;0.85;;;;;;;7.66;41.66;100480.79;1755140;81;21198;-67
2021/04/24 07:26:00;;;;;;;3.85;0.90;;;;;;;7.74;41.05;100487.05;1754853;81;21158;-67
2021/04/24 07:28:28;;;;;;;1.47;0.90;;;;;;;7.84;40.82;100490.96;1752938;81;21161;-67
2021/04/24 07:30:55;;;;;;;1.35;0.70;;;;;;;7.93;40.17;100477.10;1766486;81;21414;-66
2021/04/24 07:33:23;;;;;;;6.83;0.90;;;;;;;7.99;40.18;100481.51;1754730;81;21546;-67
2021/04/24 07:35:52;;;;;;;1.40;0.80;;;;;;;8.07;40.00;100496.47;1766364;81;21396;-67
2021/04/24 07:38:20;;;;;;;3.98;0.78;;;;;;;8.07;39.13;100481.46;1712511;81;21431;-66
2021/04/24 07:40:48;;;;;;;3.83;1.37;;;;;;;8.07;39.13;100486.92;1706313;84;21436;-68
2021/04/24 07:43:15;;;;;;;2.90;0.60;;;;;;;8.07;37.98;100497.32;1711860;81;21417;-68
2021/04/24 07:45:43;;;;;;;2.90;0.57;;;;;;;8.02;38.17;100490.70;1744574;82;21154;-68
2021/04/24 07:48:10;;;;;;;7.15;1.32;;;;;;;8.08;37.50;100499.53;1711330;83;21157;-68
2021/04/24 07:50:38;;;;;;;1.87;0.65;;;;;;;8.13;36.60;100490.30;1744654;81;21206;-67
2021/04/24 07:53:06;;;;;;;2.42;0.90;;;;;;;8.13;36.35;100484.32;1767876;80;21133;-67
2021/04/24 07:55:34;;;;;;;3.10;0.60;;;;;;;8.15;35.92;100491.81;1700379;82;21170;-68
2021/04/24 07:58:02;;;;;;;2.35;0.60;;;;;;;8.12;36.27;100498.99;1756214;79;21285;-70
2021/04/24 08:00:29;;;;;;;2.80;0.68;;;;;;;8.07;36.47;100508.75;1744365;82;21218;-72
2021/04/24 08:02:58;;;;;;;1.92;0.47;;;;;;;8.08;36.46;100503.11;1770775;80;21352;-72
2021/04/24 08:05:25;;;;;;;4.95;0.68;;;;;;;8.16;36.47;100511.77;1709762;83;21752;-70
2021/04/24 08:07:54;;;;;;;1.75;0.60;;;;;;;8.26;36.77;100498.73;1767911;79;21256;-69
2021/04/24 08:10:22;;;;;;;1.10;0.40;;;;;;;8.29;35.88;100503.84;1763254;79;21427;-69
2021/04/24 08:12:50;;;;;;;2.05;0.62;;;;;;;8.15;35.86;100530.02;1756031;80;21512;-71
2021/04/24 08:15:17;;;;;;;1.40;0.65;;;;;;;7.95;36.29;100511.87;1773077;79;21403;-69
2021/04/24 08:17:45;;;;;;;3.60;0.60;;;;;;;7.88;36.68;100501.86;1759623;80;21861;-70
2021/04/24 08:20:14;;;;;;;3.08;0.70;;;;;;;7.94;36.36;100492.44;1759848;80;21396;-67
2021/04/24 08:22:41;;;;;;;4.60;0.70;;;;;;;8.08;36.16;100507.72;1760425;79;21826;-65
2021/04/24 08:25:10;;;;;;;7.80;0.70;;;;;;;8.28;36.58;100518.52;1760035;80;21858;-66
2021/04/24 08:27:38;;;;;;;2.47;0.50;;;;;;;8.49;36.11;100504.28;1765351;80;21412;-66
2021/04/24 08:30:07;;;;;;;3.00;0.80;;;;;;;8.61;36.24;100504.70;1744789;82;21171;-66
2021/04/24 08:32:35;;;;;;;2.30;0.60;;;;;;;8.72;36.32;100500.17;1769429;80;21154;-66
2021/04/24 08:35:05;;;;;;;1.10;0.53;;;;;;;8.85;36.40;100523.11;1774815;80;21174;-66
2021/04/24 08:37:33;;;;;;;1.52;0.50;;;;;;;8.87;34.95;100518.83;1774935;79;21253;-66
2021/04/24 08:40:00;;;;;;;6.40;0.80;;;;;;;8.72;34.88;100522.03;1775226;80;21269;-66
2021/04/24 08:42:29;;;;;;;2.90;0.70;;;;;;;8.55;35.30;100523.52;1764341;79;21247;-66
2021/04/24 08:44:56;;;;;;;1.42;0.60;;;;;;;8.47;35.59;100518.11;1754471;80;21672;-68
2021/04/24 08:47:24;;;;;;;1.82;0.50;;;;;;;8.38;35.17;100531.97;1755969;80;21450;-72
2021/04/24 08:49:54;;;;;;;2.35;0.65;;;;;;;8.35;35.53;100519.53;1746528;82;21269;-71
2021/04/24 08:52:22;;;;;;;0.93;0.60;;;;;;;8.25;36.24;100525.70;1772392;79;21192;-71
2021/04/24 08:54:50;;;;;;;1.17;0.53;;;;;;;8.25;36.74;100535.26;1760033;80;21141;-72
2021/04/24 08:57:17;;;;;;;0.78;0.40;;;;;;;8.25;37.27;100525.19;1760635;80;21431;-66
2021/04/24 08:59:45;;;;;;;0.65;0.40;;;;;;;8.33;37.00;100537.97;1764361;80;21385;-68
2021/04/24 09:02:13;;;;;;;0.95;0.42;;;;;;;8.42;36.68;100508.22;1773886;80;21166;-67
2021/04/24 09:04:41;;;;;;;1.37;0.40;;;;;;;8.55;36.67;100519.42;1709649;84;21407;-65
2021/04/24 09:07:08;;;;;;;3.65;0.60;;;;;;;8.67;36.19;100510.28;1773557;81;21381;-66
2021/04/24 09:09:36;;;;;;;2.52;0.60;;;;;;;8.64;36.24;100506.55;1709684;83;21392;-65
2021/04/24 09:12:05;;;;;;;1.52;0.60;;;;;;;8.65;36.10;100519.18;1772919;79;21155;-68
2021/04/24 09:14:32;;;;;;;5.15;0.57;;;;;;;8.53;36.59;100526.95;1755082;80;21209;-66
2021/04/24 09:16:59;;;;;;;1.45;0.70;;;;;;;8.58;37.29;100515.48;1699134;82;21344;-67
2021/04/24 09:19:32;;;;;;;2.80;1.20;;;;;;;8.68;37.44;100510.62;1744396;80;21385;-69
2021/04/24 09:22:22;;;;;;;2.22;1.12;;;;;;;8.82;37.36;100516.65;1744482;82;21258;-67
2021/04/24 09:24:52;;;;;;;3.00;1.10;;;;;;;8.95;36.80;100526.95;1744450;82;21955;-68
2021/04/24 09:27:40;;;;;;;1.92;0.50;;;;;;;8.99;36.90;100526.06;1744012;81;21876;-66
2021/04/24 09:30:30;;;;;;;1.55;0.62;;;;;;;9.07;35.54;100516.43;1727961;80;21158;-67
2021/04/24 09:33:10;;;;;;;0.88;0.50;;;;;;;9.04;35.89;100517.65;1774993;79;21142;-70
2021/04/24 09:35:52;;;;;;;0.80;0.60;;;;;;;9.09;36.22;100517.94;1766980;79;21136;-71
2021/04/24 09:38:24;;;;;;;1.42;0.70;;;;;;;9.11;36.18;100524.11;1756784;79;21150;-71
2021/04/24 09:41:11;;;;;;;4.67;0.72;;;;;;;8.98;36.17;100529.31;1760269;79;21168;-69
2021/04/24 09:44:02;;;;;;;3.50;1.10;;;;;;;8.80;36.94;100530.16;1760256;80;21304;-69
2021/04/24 09:46:50;;;;;;;2.17;0.62;;;;;;;8.66;37.67;100533.69;1760375;79;21137;-69
2021/04/24 09:49:31;;;;;;;1.05;0.45;;;;;;;8.77;36.46;100552.38;1749771;80;21288;-68
2021/04/24 09:52:08;;;;;;;1.00;0.45;;;;;;;8.78;36.03;100539.91;1760306;81;21423;-68
2021/04/24 09:54:47;;;;;;;2.10;0.98;;;;;;;8.87;35.18;100532.49;1760307;80;21181;-68
2021/04/24 09:57:22;;;;;;;1.62;0.62;;;;;;;8.94;35.18;100533.45;1757895;80;21270;-73
2021/04/24 09:59:54;;;;;;;1.98;0.50;;;;;;;9.13;35.12;100511.10;1756335;80;21165;-65
2021/04/24 10:02:35;;;;;;;0.40;0.30;;;;;;;9.26;35.18;100526.02;1768817;81;21158;-66
2021/04/24 10:05:16;;;;;;;2.52;0.70;;;;;;;9.30;36.88;100530.92;1746324;82;21611;-67
2021/04/24 10:07:52;;;;;;;1.42;0.57;;;;;;;9.21;37.55;100534.78;1739321;82;21294;-67
2021/04/24 10:10:38;;;;;;;1.95;0.70;;;;;;;9.03;37.66;100550.11;1775153;80;21544;-67
2021/04/24 10:13:08;;;;;;;1.15;0.47;;;;;;;8.93;37.96;100546.78;1775071;80;21194;-66
2021/04/24 10:15:43;;;;;;;2.12;0.50;;;;;;;9.03;36.88;100539.70;1775090;80;21139;-66
2021/04/24 10:18:15;;;;;;;1.67;0.50;;;;;;;9.18;35.88;100542.83;1777311;79;21257;-67
2021/04/24 10:20:47;;;;;;;2.85;0.50;;;;;;;9.32;35.07;100541.16;1770921;80;21253;-70
2021/04/24 10:23:16;;;;;;;1.98;0.57;;;;;;;9.41;34.51;100535.94;1762835;80;21130;-65
2021/04/24 10:25:44;;;;;;;7.10;0.72;;;;;;;9.56;34.84;100531.84;1764912;79;21118;-66
2021/04/24 10:28:11;;;;;;;2.20;0.70;;;;;;;9.73;34.28;100531.98;1747651;81;21198;-68
2021/04/24 10:30:39;;;;;;;1.95;0.60;;;;;;;9.64;34.32;100545.43;1744550;81;21206;-68
2021/04/24 10:33:07;;;;;;;0.78;0.47;;;;;;;9.53;34.80;100551.38;1744449;82;21232;-69
2021/04/24 10:35:34;;;;;;;3.15;0.60;;;;;;;9.45;34.98;100553.67;1744383;82;21385;-71
2021/04/24 10:38:03;;;;;;;3.87;1.80;;;;;;;9.49;35.56;100555.00;1744583;82;21171;-67
2021/04/24 10:40:30;;;;;;;3.80;1.20;;;;;;;9.71;33.92;100543.64;1768886;80;21397;-67
2021/04/24 10:42:58;;;;;;;2.17;1.40;;;;;;;9.91;33.41;100541.73;1709445;83;21230;-70
2021/04/24 10:45:34;;;;;;;2.45;1.00;;;;;;;9.98;32.96;100541.30;1773597;81;21420;-68
2021/04/24 10:48:02;;;;;;;2.75;0.78;;;;;;;9.92;33.33;100548.91;1709779;84;21312;-68
2021/04/24 10:50:46;;;;;;;2.02;0.90;;;;;;;9.83;33.52;100543.53;1792312;79;21126;-69
2021/04/24 10:53:26;;;;;;;2.77;0.70;;;;;;;9.69;33.90;100544.87;1746437;82;21210;-68
2021/04/24 10:55:55;;;;;;;0.60;0.40;;;;;;;9.66;33.76;100548.83;1749844;82;21412;-70
2021/04/24 10:58:25;;;;;;;4.85;0.62;;;;;;;9.63;33.31;100549.73;1746608;81;21446;-67
2021/04/24 11:00:58;;;;;;;5.95;0.68;;;;;;;9.77;32.96;100551.64;1721528;82;21159;-68
2021/04/24 11:03:48;;;;;;;1.40;0.70;;;;;;;9.96;31.79;100544.75;1709601;83;21181;-67
2021/04/24 11:06:22;;;;;;;1.67;0.75;;;;;;;10.09;31.15;100547.66;1757976;79;21944;-72
2021/04/24 11:09:09;;;;;;;4.20;1.65;;;;;;;10.17;31.63;100535.22;1762287;80;21331;-72
2021/04/24 11:11:40;;;;;;;3.87;0.60;;;;;;;10.42;30.98;100568.14;1730095;80;21154;-68
2021/04/24 11:14:20;;;;;;;2.02;0.72;;;;;;;10.55;30.43;100546.90;1723417;82;21465;-70
2021/04/24 11:16:47;;;;;;;2.90;0.85;;;;;;;10.72;29.91;100532.42;1695853;81;21137;-68
2021/04/24 11:19:44;;;;;;;1.80;0.60;;;;;;;10.94;29.19;100553.83;1759826;81;21165;-72
2021/04/24 11:22:40;;;;;;;2.67;0.60;;;;;;;10.96;28.37;100555.85;1714658;80;21394;-69
2021/04/24 11:25:27;;;;;;;1.47;0.47;;;;;;;10.83;28.17;100568.05;1759502;80;21856;-68
2021/04/24 11:28:12;;;;;;;2.58;0.50;;;;;;;10.77;27.86;100551.34;1760185;79;21142;-71
2021/04/24 11:31:01;;;;;;;1.05;0.40;;;;;;;10.90;28.15;100549.27;1760049;80;21838;-72
2021/04/24 11:33:45;;;;;;;4.17;0.62;;;;;;;11.13;28.27;100555.09;1759913;80;21926;-72
2021/04/24 11:36:22;;;;;;;3.98;0.60;;;;;;;11.39;28.50;100530.09;1759561;80;21146;-72
2021/04/24 11:39:08;;;;;;;0.80;0.40;;;;;;;11.55;27.78;100533.57;1754357;79;21131;-71
2021/04/24 11:41:45;;;;;;;4.35;0.60;;;;;;;11.65;28.15;100541.77;1746437;80;21277;-70
2021/04/24 11:44:21;;;;;;;3.80;0.50;;;;;;;11.93;28.49;100530.80;1799735;78;21893;-72
2021/04/24 11:46:52;;;;;;;1.35;0.70;;;;;;;12.12;28.06;100526.45;1683018;85;21202;-71